sensor_id;sensor_type;location;lat;lon;timestamp;pressure;altitude;pressure_sealevel;temperature;humidity
55490;BME280;44029;52.956;4.772;2022-09-09T00:01:14;100837.38;;;17.24;100.00
55490;BME280;44029;52.956;4.772;2022-09-09T00:04:01;100840.94;;;17.25;100.00
55490;BME280;44029;52.956;4.772;2022-09-09T00:06:42;100846.16;;;17.07;100.00
55490;BME280;44029;52.956;4.772;2022-09-09T00:09:17;100842.78;;;17.10;100.00
55490;BME280;44029;52.956;4.772;2022-09-09T00:12:10;100836.59;;;17.18;100.00
55490;BME280;44029;52.956;4.772;2022-09-09T00:14:37;100839.78;;;17.07;100.00
55490;BME280;44029;52.956;4.772;2022-09-09T00:17:09;100836.53;;;16.99;100.00
55490;BME280;44029;52.956;4.772;2022-09-09T00:19:55;100835.13;;;17.26;100.00
55490;BME280;44029;52.956;4.772;2022-09-09T00:22:28;100833.84;;;17.18;100.00
55490;BME280;44029;52.956;4.772;2022-09-09T00:25:19;100831.25;;;17.27;100.00
55490;BME280;44029;52.956;4.772;2022-09-09T00:27:49;100825.47;;;17.24;100.00
55490;BME280;44029;52.956;4.772;2022-09-09T00:30:24;100821.28;;;17.26;100.00
55490;BME280;44029;52.956;4.772;2022-09-09T00:32:54;100823.69;;;17.33;100.00
55490;BME280;44029;52.956;4.772;2022-09-09T00:35:31;100817.25;;;17.37;100.00
55490;BME280;44029;52.956;4.772;2022-09-09T00:38:10;100823.53;;;17.24;100.00
55490;BME280;44029;52.956;4.772;2022-09-09T00:41:02;100814.50;;;17.13;100.00
55490;BME280;44029;52.956;4.772;2022-09-09T00:43:30;100823.34;;;17.15;100.00
55490;BME280;44029;52.956;4.772;2022-09-09T00:51:17;100825.66;;;17.08;100.00
55490;BME280;44029;52.956;4.772;2022-09-09T00:54:28;100825.09;;;17.06;100.00
55490;BME280;44029;52.956;4.772;2022-09-09T00:59:45;100813.34;;;16.95;100.00
55490;BME280;44029;52.956;4.772;2022-09-09T01:02:26;100819.69;;;16.96;100.00
55490;BME280;44029;52.956;4.772;2022-09-09T01:04:53;100814.88;;;16.83;100.00
55490;BME280;44029;52.956;4.772;2022-09-09T01:07:20;100813.47;;;16.80;100.00
55490;BME280;44029;52.956;4.772;2022-09-09T01:09:52;100811.94;;;16.98;100.00
55490;BME280;44029;52.956;4.772;2022-09-09T01:12:27;100816.50;;;17.08;100.00
55490;BME280;44029;52.956;4.772;2022-09-09T01:15:17;100813.97;;;17.11;100.00
55490;BME280;44029;52.956;4.772;2022-09-09T01:18:00;100815.03;;;17.15;100.00
55490;BME280;44029;52.956;4.772;2022-09-09T01:21:49;100812.34;;;17.10;100.00
55490;BME280;44029;52.956;4.772;2022-09-09T01:23:50;100812.41;;;17.05;100.00
55490;BME280;44029;52.956;4.772;2022-09-09T01:26:26;100812.88;;;17.12;100.00
55490;BME280;44029;52.956;4.772;2022-09-09T01:28:54;100812.16;;;17.02;100.00
55490;BME280;44029;52.956;4.772;2022-09-09T01:31:28;100818.03;;;17.19;100.00
55490;BME280;44029;52.956;4.772;2022-09-09T01:33:55;100815.94;;;17.11;100.00
55490;BME280;44029;52.956;4.772;2022-09-09T01:36:35;100812.78;;;17.17;100.00
55490;BME280;44029;52.956;4.772;2022-09-09T01:39:03;100806.06;;;17.05;100.00
55490;BME280;44029;52.956;4.772;2022-09-09T01:41:28;100813.59;;;16.99;100.00
55490;BME280;44029;52.956;4.772;2022-09-09T01:43:55;100807.44;;;17.02;100.00
55490;BME280;44029;52.956;4.772;2022-09-09T01:46:22;100811.03;;;17.03;100.00
55490;BME280;44029;52.956;4.772;2022-09-09T01:48:49;100817.47;;;16.98;100.00
55490;BME280;44029;52.956;4.772;2022-09-09T01:51:15;100805.34;;;16.94;100.00
55490;BME280;44029;52.956;4.772;2022-09-09T01:53:41;100810.34;;;16.92;100.00
55490;BME280;44029;52.956;4.772;2022-09-09T02:01:25;100810.41;;;16.87;100.00
55490;BME280;44029;52.956;4.772;2022-09-09T02:03:53;100820.28;;;16.93;100.00
55490;BME280;44029;52.956;4.772;2022-09-09T02:06:38;100818.56;;;16.97;100.00
55490;BME280;44029;52.956;4.772;2022-09-09T02:09:06;100825.81;;;16.93;100.00
55490;BME280;44029;52.956;4.772;2022-09-09T02:11:33;100813.13;;;16.92;100.00
55490;BME280;44029;52.956;4.772;2022-09-09T02:14:06;100817.50;;;16.93;100.00
55490;BME280;44029;52.956;4.772;2022-09-09T02:16:56;100813.41;;;16.90;100.00
55490;BME280;44029;52.956;4.772;2022-09-09T02:19:34;100802.63;;;16.89;100.00
55490;BME280;44029;52.956;4.772;2022-09-09T02:22:01;100799.09;;;16.78;100.00
55490;BME280;44029;52.956;4.772;2022-09-09T02:24:32;100798.53;;;16.81;100.00
55490;BME280;44029;52.956;4.772;2022-09-09T02:27:00;100797.13;;;16.84;100.00
55490;BME280;44029;52.956;4.772;2022-09-09T02:29:33;100798.28;;;16.77;100.00
55490;BME280;44029;52.956;4.772;2022-09-09T02:32:00;100805.38;;;16.89;100.00
55490;BME280;44029;52.956;4.772;2022-09-09T02:34:30;100798.66;;;16.66;100.00
55490;BME280;44029;52.956;4.772;2022-09-09T02:36:57;100802.28;;;16.66;100.00
55490;BME280;44029;52.956;4.772;2022-09-09T02:39:24;100802.31;;;16.61;100.00
55490;BME280;44029;52.956;4.772;2022-09-09T02:41:49;100796.59;;;16.52;100.00
55490;BME280;44029;52.956;4.772;2022-09-09T02:44:16;100788.50;;;16.61;100.00
55490;BME280;44029;52.956;4.772;2022-09-09T02:52:21;100800.13;;;16.58;100.00
55490;BME280;44029;52.956;4.772;2022-09-09T02:54:55;100807.03;;;16.60;100.00
55490;BME280;44029;52.956;4.772;2022-09-09T02:57:26;100802.66;;;16.54;100.00
55490;BME280;44029;52.956;4.772;2022-09-09T02:59:53;100808.50;;;16.53;100.00
55490;BME280;44029;52.956;4.772;2022-09-09T03:02:22;100806.31;;;16.50;100.00
55490;BME280;44029;52.956;4.772;2022-09-09T03:04:47;100797.78;;;16.46;100.00
55490;BME280;44029;52.956;4.772;2022-09-09T03:07:16;100794.75;;;16.42;100.00
55490;BME280;44029;52.956;4.772;2022-09-09T03:09:42;100805.31;;;16.35;100.00
55490;BME280;44029;52.956;4.772;2022-09-09T03:12:08;100797.28;;;16.39;100.00
55490;BME280;44029;52.956;4.772;2022-09-09T03:14:33;100791.53;;;16.30;100.00
55490;BME280;44029;52.956;4.772;2022-09-09T03:16:58;100792.44;;;16.26;100.00
55490;BME280;44029;52.956;4.772;2022-09-09T03:19:26;100792.56;;;16.39;100.00
55490;BME280;44029;52.956;4.772;2022-09-09T03:21:53;100790.94;;;16.38;100.00
55490;BME280;44029;52.956;4.772;2022-09-09T03:24:18;100786.00;;;16.30;100.00
55490;BME280;44029;52.956;4.772;2022-09-09T03:26:43;100781.91;;;16.28;100.00
55490;BME280;44029;52.956;4.772;2022-09-09T03:29:12;100789.97;;;16.19;100.00
55490;BME280;44029;52.956;4.772;2022-09-09T03:31:38;100785.00;;;16.21;100.00
55490;BME280;44029;52.956;4.772;2022-09-09T03:34:04;100780.31;;;16.21;100.00
55490;BME280;44029;52.956;4.772;2022-09-09T03:36:29;100789.44;;;16.17;100.00
55490;BME280;44029;52.956;4.772;2022-09-09T03:38:55;100785.88;;;16.16;100.00
55490;BME280;44029;52.956;4.772;2022-09-09T03:41:22;100778.41;;;16.17;100.00
55490;BME280;44029;52.956;4.772;2022-09-09T03:43:52;100779.19;;;16.22;100.00
55490;BME280;44029;52.956;4.772;2022-09-09T03:46:19;100773.41;;;16.19;100.00
55490;BME280;44029;52.956;4.772;2022-09-09T03:48:45;100770.38;;;16.15;100.00
55490;BME280;44029;52.956;4.772;2022-09-09T03:51:10;100773.66;;;16.22;100.00
55490;BME280;44029;52.956;4.772;2022-09-09T03:53:36;100769.44;;;16.30;100.00
55490;BME280;44029;52.956;4.772;2022-09-09T03:56:03;100779.38;;;16.31;100.00
55490;BME280;44029;52.956;4.772;2022-09-09T03:58:29;100780.25;;;16.27;100.00
55490;BME280;44029;52.956;4.772;2022-09-09T04:00:58;100779.34;;;16.36;100.00
55490;BME280;44029;52.956;4.772;2022-09-09T04:03:24;100780.44;;;16.35;100.00
55490;BME280;44029;52.956;4.772;2022-09-09T04:05:51;100783.69;;;16.42;100.00
55490;BME280;44029;52.956;4.772;2022-09-09T04:08:18;100783.75;;;16.37;100.00
55490;BME280;44029;52.956;4.772;2022-09-09T04:10:47;100785.25;;;16.54;100.00
55490;BME280;44029;52.956;4.772;2022-09-09T04:13:14;100772.47;;;16.58;100.00
55490;BME280;44029;52.956;4.772;2022-09-09T04:15:41;100771.03;;;16.36;100.00
55490;BME280;44029;52.956;4.772;2022-09-09T04:18:06;100766.59;;;16.40;100.00
55490;BME280;44029;52.956;4.772;2022-09-09T04:20:32;100760.22;;;16.40;100.00
55490;BME280;44029;52.956;4.772;2022-09-09T04:22:58;100755.53;;;16.40;100.00
55490;BME280;44029;52.956;4.772;2022-09-09T04:25:23;100757.75;;;16.38;100.00
55490;BME280;44029;52.956;4.772;2022-09-09T04:27:56;100743.03;;;16.43;100.00
55490;BME280;44029;52.956;4.772;2022-09-09T04:30:22;100747.06;;;16.27;100.00
55490;BME280;44029;52.956;4.772;2022-09-09T04:32:48;100749.53;;;16.28;100.00
55490;BME280;44029;52.956;4.772;2022-09-09T04:35:13;100754.47;;;16.36;100.00
55490;BME280;44029;52.956;4.772;2022-09-09T04:37:38;100751.97;;;16.35;100.00
55490;BME280;44029;52.956;4.772;2022-09-09T04:40:04;100749.47;;;16.38;100.00
55490;BME280;44029;52.956;4.772;2022-09-09T04:42:30;100749.22;;;16.35;100.00
55490;BME280;44029;52.956;4.772;2022-09-09T04:44:59;100751.53;;;16.22;100.00
55490;BME280;44029;52.956;4.772;2022-09-09T04:47:24;100760.59;;;16.28;100.00
55490;BME280;44029;52.956;4.772;2022-09-09T04:49:50;100752.59;;;16.27;100.00
55490;BME280;44029;52.956;4.772;2022-09-09T04:52:17;100751.22;;;16.29;100.00
55490;BME280;44029;52.956;4.772;2022-09-09T04:54:42;100750.69;;;16.27;100.00
55490;BME280;44029;52.956;4.772;2022-09-09T04:57:10;100753.25;;;16.48;100.00
55490;BME280;44029;52.956;4.772;2022-09-09T04:59:35;100749.50;;;16.33;100.00
55490;BME280;44029;52.956;4.772;2022-09-09T05:02:01;100750.03;;;16.35;100.00
55490;BME280;44029;52.956;4.772;2022-09-09T05:04:28;100746.56;;;16.49;100.00
55490;BME280;44029;52.956;4.772;2022-09-09T05:06:53;100741.16;;;16.38;100.00
55490;BME280;44029;52.956;4.772;2022-09-09T05:09:19;100743.13;;;16.38;100.00
55490;BME280;44029;52.956;4.772;2022-09-09T05:11:44;100736.50;;;16.34;100.00
55490;BME280;44029;52.956;4.772;2022-09-09T05:14:09;100727.91;;;16.35;100.00
55490;BME280;44029;52.956;4.772;2022-09-09T05:16:37;100731.81;;;16.34;100.00
55490;BME280;44029;52.956;4.772;2022-09-09T05:19:02;100730.97;;;16.34;100.00
55490;BME280;44029;52.956;4.772;2022-09-09T05:21:28;100722.88;;;16.42;100.00
55490;BME280;44029;52.956;4.772;2022-09-09T05:23:56;100729.22;;;16.43;100.00
55490;BME280;44029;52.956;4.772;2022-09-09T05:26:22;100729.06;;;16.58;100.00
55490;BME280;44029;52.956;4.772;2022-09-09T05:28:47;100725.53;;;16.53;100.00
55490;BME280;44029;52.956;4.772;2022-09-09T05:31:14;100725.16;;;16.59;100.00
55490;BME280;44029;52.956;4.772;2022-09-09T05:33:42;100725.47;;;16.58;100.00
55490;BME280;44029;52.956;4.772;2022-09-09T05:36:10;100716.09;;;16.83;100.00
55490;BME280;44029;52.956;4.772;2022-09-09T05:38:38;100712.13;;;17.32;100.00
55490;BME280;44029;52.956;4.772;2022-09-09T05:41:05;100701.69;;;17.43;100.00
55490;BME280;44029;52.956;4.772;2022-09-09T05:43:30;100691.16;;;17.07;100.00
55490;BME280;44029;52.956;4.772;2022-09-09T05:46:07;100691.00;;;18.07;100.00
55490;BME280;44029;52.956;4.772;2022-09-09T05:48:38;100664.59;;;18.10;100.00
55490;BME280;44029;52.956;4.772;2022-09-09T05:51:05;100656.06;;;17.92;100.00
55490;BME280;44029;52.956;4.772;2022-09-09T05:53:34;100661.53;;;17.98;100.00
55490;BME280;44029;52.956;4.772;2022-09-09T05:58:26;100654.78;;;18.31;100.00
55490;BME280;44029;52.956;4.772;2022-09-09T06:00:52;100652.03;;;18.87;100.00
55490;BME280;44029;52.956;4.772;2022-09-09T06:03:19;100634.81;;;19.35;100.00
55490;BME280;44029;52.956;4.772;2022-09-09T06:05:57;100608.91;;;20.25;100.00
55490;BME280;44029;52.956;4.772;2022-09-09T06:08:22;100604.97;;;20.75;100.00
55490;BME280;44029;52.956;4.772;2022-09-09T06:10:47;100599.94;;;20.37;100.00
55490;BME280;44029;52.956;4.772;2022-09-09T06:13:13;100604.16;;;20.25;100.00
55490;BME280;44029;52.956;4.772;2022-09-09T06:15:38;100595.81;;;21.00;100.00
55490;BME280;44029;52.956;4.772;2022-09-09T06:18:03;100603.53;;;20.28;100.00
55490;BME280;44029;52.956;4.772;2022-09-09T06:20:28;100594.06;;;20.38;100.00
55490;BME280;44029;52.956;4.772;2022-09-09T06:22:55;100598.91;;;19.39;100.00
55490;BME280;44029;52.956;4.772;2022-09-09T06:25:20;100614.97;;;19.05;100.00
55490;BME280;44029;52.956;4.772;2022-09-09T06:27:49;100629.31;;;18.85;100.00
55490;BME280;44029;52.956;4.772;2022-09-09T06:30:14;100634.81;;;18.99;100.00
55490;BME280;44029;52.956;4.772;2022-09-09T06:32:42;100638.19;;;19.09;100.00
55490;BME280;44029;52.956;4.772;2022-09-09T06:35:08;100632.69;;;18.82;100.00
55490;BME280;44029;52.956;4.772;2022-09-09T06:37:33;100632.41;;;18.69;100.00
55490;BME280;44029;52.956;4.772;2022-09-09T06:39:58;100635.22;;;19.06;100.00
55490;BME280;44029;52.956;4.772;2022-09-09T06:42:24;100629.91;;;18.82;100.00
55490;BME280;44029;52.956;4.772;2022-09-09T06:44:49;100636.38;;;18.63;100.00
55490;BME280;44029;52.956;4.772;2022-09-09T06:47:14;100636.91;;;18.51;100.00
55490;BME280;44029;52.956;4.772;2022-09-09T06:49:40;100639.69;;;18.51;100.00
55490;BME280;44029;52.956;4.772;2022-09-09T06:52:05;100646.97;;;18.20;100.00
55490;BME280;44029;52.956;4.772;2022-09-09T06:54:31;100651.28;;;18.12;100.00
55490;BME280;44029;52.956;4.772;2022-09-09T06:56:56;100652.59;;;17.82;100.00
55490;BME280;44029;52.956;4.772;2022-09-09T06:59:22;100657.72;;;18.07;100.00
55490;BME280;44029;52.956;4.772;2022-09-09T07:01:47;100659.22;;;17.86;100.00
55490;BME280;44029;52.956;4.772;2022-09-09T07:04:13;100665.44;;;17.77;100.00
55490;BME280;44029;52.956;4.772;2022-09-09T07:06:42;100663.25;;;17.74;100.00
55490;BME280;44029;52.956;4.772;2022-09-09T07:09:13;100675.03;;;17.66;100.00
55490;BME280;44029;52.956;4.772;2022-09-09T07:11:40;100674.81;;;17.63;100.00
55490;BME280;44029;52.956;4.772;2022-09-09T07:14:07;100666.66;;;17.52;100.00
55490;BME280;44029;52.956;4.772;2022-09-09T07:16:33;100680.28;;;17.68;100.00
55490;BME280;44029;52.956;4.772;2022-09-09T07:18:58;100672.38;;;17.94;100.00
55490;BME280;44029;52.956;4.772;2022-09-09T07:21:26;100669.19;;;18.75;100.00
55490;BME280;44029;52.956;4.772;2022-09-09T07:23:52;100654.16;;;19.40;100.00
55490;BME280;44029;52.956;4.772;2022-09-09T07:26:20;100648.91;;;19.61;100.00
55490;BME280;44029;52.956;4.772;2022-09-09T07:28:46;100640.44;;;20.20;100.00
55490;BME280;44029;52.956;4.772;2022-09-09T07:33:43;100628.25;;;20.39;100.00
55490;BME280;44029;52.956;4.772;2022-09-09T07:36:21;100620.72;;;20.88;100.00
55490;BME280;44029;52.956;4.772;2022-09-09T07:38:52;100622.16;;;21.90;100.00
55490;BME280;44029;52.956;4.772;2022-09-09T07:41:21;100605.59;;;21.76;100.00
55490;BME280;44029;52.956;4.772;2022-09-09T07:43:47;100601.78;;;21.98;100.00
55490;BME280;44029;52.956;4.772;2022-09-09T07:46:15;100585.31;;;23.04;100.00
55490;BME280;44029;52.956;4.772;2022-09-09T07:48:59;100592.84;;;23.24;100.00
55490;BME280;44029;52.956;4.772;2022-09-09T07:51:29;100582.00;;;23.02;100.00
55490;BME280;44029;52.956;4.772;2022-09-09T07:54:00;100583.19;;;23.01;100.00
55490;BME280;44029;52.956;4.772;2022-09-09T07:56:27;100587.47;;;22.77;100.00
55490;BME280;44029;52.956;4.772;2022-09-09T07:58:54;100595.19;;;22.12;100.00
55490;BME280;44029;52.956;4.772;2022-09-09T08:01:29;100587.84;;;22.37;100.00
55490;BME280;44029;52.956;4.772;2022-09-09T08:03:57;100597.28;;;21.68;100.00
55490;BME280;44029;52.956;4.772;2022-09-09T08:06:35;100604.59;;;21.90;100.00
55490;BME280;44029;52.956;4.772;2022-09-09T08:09:01;100603.28;;;21.87;100.00
55490;BME280;44029;52.956;4.772;2022-09-09T08:11:28;100595.94;;;22.30;100.00
55490;BME280;44029;52.956;4.772;2022-09-09T08:13:54;100612.19;;;21.80;100.00
55490;BME280;44029;52.956;4.772;2022-09-09T08:16:27;100599.72;;;21.43;100.00
55490;BME280;44029;52.956;4.772;2022-09-09T08:18:53;100602.72;;;21.47;100.00
55490;BME280;44029;52.956;4.772;2022-09-09T08:21:23;100604.38;;;21.48;100.00
55490;BME280;44029;52.956;4.772;2022-09-09T08:23:51;100608.75;;;21.66;100.00
55490;BME280;44029;52.956;4.772;2022-09-09T08:26:20;100616.31;;;21.22;100.00
55490;BME280;44029;52.956;4.772;2022-09-09T08:28:49;100610.91;;;21.34;100.00
55490;BME280;44029;52.956;4.772;2022-09-09T08:33:44;100609.31;;;21.98;100.00
55490;BME280;44029;52.956;4.772;2022-09-09T08:36:12;100606.72;;;22.40;100.00
55490;BME280;44029;52.956;4.772;2022-09-09T08:38:40;100596.47;;;21.41;100.00
55490;BME280;44029;52.956;4.772;2022-09-09T08:43:58;100609.94;;;21.56;100.00
55490;BME280;44029;52.956;4.772;2022-09-09T08:46:33;100615.31;;;21.70;100.00
55490;BME280;44029;52.956;4.772;2022-09-09T08:52:00;100611.06;;;21.12;100.00
55490;BME280;44029;52.956;4.772;2022-09-09T08:54:30;100622.06;;;21.34;100.00
55490;BME280;44029;52.956;4.772;2022-09-09T08:56:58;100621.56;;;20.97;100.00
55490;BME280;44029;52.956;4.772;2022-09-09T08:59:23;100631.69;;;20.84;100.00
55490;BME280;44029;52.956;4.772;2022-09-09T09:02:36;100639.41;;;20.47;100.00
55490;BME280;44029;52.956;4.772;2022-09-09T09:10:17;100653.84;;;20.18;100.00
55490;BME280;44029;52.956;4.772;2022-09-09T09:12:47;100659.16;;;20.37;100.00
55490;BME280;44029;52.956;4.772;2022-09-09T09:15:27;100663.84;;;20.19;100.00
55490;BME280;44029;52.956;4.772;2022-09-09T09:17:55;100667.28;;;20.16;100.00
55490;BME280;44029;52.956;4.772;2022-09-09T09:20:27;100667.16;;;20.30;100.00
55490;BME280;44029;52.956;4.772;2022-09-09T09:22:57;100669.91;;;20.21;100.00
55490;BME280;44029;52.956;4.772;2022-09-09T09:25:31;100668.38;;;19.84;100.00
55490;BME280;44029;52.956;4.772;2022-09-09T09:28:00;100666.03;;;20.00;100.00
55490;BME280;44029;52.956;4.772;2022-09-09T09:30:29;100675.97;;;19.92;100.00
55490;BME280;44029;52.956;4.772;2022-09-09T09:33:08;100671.44;;;19.74;100.00
55490;BME280;44029;52.956;4.772;2022-09-09T09:35:37;100675.28;;;19.86;100.00
55490;BME280;44029;52.956;4.772;2022-09-09T09:38:20;100671.72;;;19.72;100.00
55490;BME280;44029;52.956;4.772;2022-09-09T09:40:55;100680.53;;;19.88;100.00
55490;BME280;44029;52.956;4.772;2022-09-09T09:43:30;100684.88;;;20.03;100.00
55490;BME280;44029;52.956;4.772;2022-09-09T09:45:56;100673.81;;;20.20;100.00
55490;BME280;44029;52.956;4.772;2022-09-09T09:48:26;100667.28;;;20.16;100.00
55490;BME280;44029;52.956;4.772;2022-09-09T09:50:55;100671.66;;;20.08;100.00
55490;BME280;44029;52.956;4.772;2022-09-09T09:53:33;100675.84;;;19.97;100.00
55490;BME280;44029;52.956;4.772;2022-09-09T09:56:10;100682.41;;;20.01;100.00
55490;BME280;44029;52.956;4.772;2022-09-09T09:58:56;100670.00;;;20.07;100.00
55490;BME280;44029;52.956;4.772;2022-09-09T10:01:27;100683.28;;;20.11;100.00
55490;BME280;44029;52.956;4.772;2022-09-09T10:03:58;100677.94;;;19.92;100.00
55490;BME280;44029;52.956;4.772;2022-09-09T10:06:34;100679.03;;;20.13;100.00
55490;BME280;44029;52.956;4.772;2022-09-09T10:09:01;100674.81;;;20.16;100.00
55490;BME280;44029;52.956;4.772;2022-09-09T10:11:37;100673.59;;;20.08;100.00
55490;BME280;44029;52.956;4.772;2022-09-09T10:16:44;100682.47;;;19.87;100.00
55490;BME280;44029;52.956;4.772;2022-09-09T10:19:28;100674.13;;;20.10;100.00
55490;BME280;44029;52.956;4.772;2022-09-09T10:35:12;100657.25;;;20.87;100.00
55490;BME280;44029;52.956;4.772;2022-09-09T10:38:18;100658.41;;;21.03;100.00
55490;BME280;44029;52.956;4.772;2022-09-09T10:43:45;100667.31;;;20.25;100.00
55490;BME280;44029;52.956;4.772;2022-09-09T10:46:31;100672.28;;;20.05;100.00
55490;BME280;44029;52.956;4.772;2022-09-09T10:52:14;100688.41;;;19.95;100.00
55490;BME280;44029;52.956;4.772;2022-09-09T10:54:59;100688.78;;;20.02;100.00
55490;BME280;44029;52.956;4.772;2022-09-09T10:57:41;100689.97;;;20.09;100.00
55490;BME280;44029;52.956;4.772;2022-09-09T11:02:42;100679.06;;;20.53;100.00
55490;BME280;44029;52.956;4.772;2022-09-09T11:05:49;100676.06;;;20.81;100.00
55490;BME280;44029;52.956;4.772;2022-09-09T11:08:25;100676.66;;;20.69;100.00
55490;BME280;44029;52.956;4.772;2022-09-09T11:21:48;100669.53;;;20.45;100.00
55490;BME280;44029;52.956;4.772;2022-09-09T11:24:28;100676.84;;;20.33;100.00
55490;BME280;44029;52.956;4.772;2022-09-09T11:30:14;100672.50;;;20.49;100.00
55490;BME280;44029;52.956;4.772;2022-09-09T11:40:41;100667.41;;;20.11;100.00
55490;BME280;44029;52.956;4.772;2022-09-09T11:45:36;100674.69;;;20.30;100.00
55490;BME280;44029;52.956;4.772;2022-09-09T11:48:03;100668.00;;;20.31;100.00
55490;BME280;44029;52.956;4.772;2022-09-09T11:50:33;100669.25;;;20.24;100.00
55490;BME280;44029;52.956;4.772;2022-09-09T11:55:39;100671.94;;;20.70;100.00
55490;BME280;44029;52.956;4.772;2022-09-09T12:00:41;100656.78;;;21.11;100.00
55490;BME280;44029;52.956;4.772;2022-09-09T12:06:00;100645.97;;;21.18;100.00
55490;BME280;44029;52.956;4.772;2022-09-09T12:08:35;100641.72;;;21.29;100.00
55490;BME280;44029;52.956;4.772;2022-09-09T12:11:02;100635.44;;;20.80;100.00
55490;BME280;44029;52.956;4.772;2022-09-09T12:13:29;100635.19;;;20.59;100.00
55490;BME280;44029;52.956;4.772;2022-09-09T12:15:58;100643.16;;;20.83;100.00
55490;BME280;44029;52.956;4.772;2022-09-09T12:18:37;100642.34;;;20.82;100.00
55490;BME280;44029;52.956;4.772;2022-09-09T12:23:48;100640.38;;;20.83;100.00
55490;BME280;44029;52.956;4.772;2022-09-09T12:26:31;100627.06;;;20.80;100.00
55490;BME280;44029;52.956;4.772;2022-09-09T12:31:56;100627.75;;;20.85;100.00
55490;BME280;44029;52.956;4.772;2022-09-09T12:34:43;100621.06;;;20.95;100.00
55490;BME280;44029;52.956;4.772;2022-09-09T12:37:37;100616.63;;;20.77;100.00
55490;BME280;44029;52.956;4.772;2022-09-09T12:42:44;100612.00;;;20.72;100.00
55490;BME280;44029;52.956;4.772;2022-09-09T12:45:24;100619.06;;;20.70;100.00
55490;BME280;44029;52.956;4.772;2022-09-09T12:50:22;100619.69;;;20.66;100.00
55490;BME280;44029;52.956;4.772;2022-09-09T12:52:52;100631.31;;;20.69;100.00
55490;BME280;44029;52.956;4.772;2022-09-09T12:55:21;100632.72;;;20.57;100.00
55490;BME280;44029;52.956;4.772;2022-09-09T12:57:50;100625.88;;;20.63;100.00
55490;BME280;44029;52.956;4.772;2022-09-09T13:00:19;100639.25;;;20.44;100.00
55490;BME280;44029;52.956;4.772;2022-09-09T13:02:51;100657.75;;;20.08;100.00
55490;BME280;44029;52.956;4.772;2022-09-09T13:05:20;100669.03;;;19.81;100.00
55490;BME280;44029;52.956;4.772;2022-09-09T13:07:46;100684.81;;;19.35;100.00
55490;BME280;44029;52.956;4.772;2022-09-09T13:10:14;100697.59;;;19.22;100.00
55490;BME280;44029;52.956;4.772;2022-09-09T13:12:40;100703.38;;;19.48;100.00
55490;BME280;44029;52.956;4.772;2022-09-09T13:15:14;100710.25;;;19.87;100.00
55490;BME280;44029;52.956;4.772;2022-09-09T13:17:42;100704.16;;;19.99;100.00
55490;BME280;44029;52.956;4.772;2022-09-09T13:20:17;100697.25;;;20.59;100.00
55490;BME280;44029;52.956;4.772;2022-09-09T13:22:42;100687.25;;;20.58;100.00
55490;BME280;44029;52.956;4.772;2022-09-09T13:27:38;100675.78;;;21.26;100.00
55490;BME280;44029;52.956;4.772;2022-09-09T13:30:40;100660.56;;;21.15;100.00
55490;BME280;44029;52.956;4.772;2022-09-09T13:35:56;100644.72;;;20.26;100.00
55490;BME280;44029;52.956;4.772;2022-09-09T13:38:23;100649.09;;;20.10;100.00
55490;BME280;44029;52.956;4.772;2022-09-09T13:41:07;100650.56;;;20.47;100.00
55490;BME280;44029;52.956;4.772;2022-09-09T13:43:38;100657.66;;;20.62;100.00
55490;BME280;44029;52.956;4.772;2022-09-09T13:47:00;100649.63;;;20.61;100.00
55490;BME280;44029;52.956;4.772;2022-09-09T13:49:22;100633.66;;;20.84;100.00
55490;BME280;44029;52.956;4.772;2022-09-09T13:51:50;100630.72;;;20.98;100.00
55490;BME280;44029;52.956;4.772;2022-09-09T13:54:19;100630.56;;;21.12;100.00
55490;BME280;44029;52.956;4.772;2022-09-09T13:56:45;100621.72;;;21.10;100.00
55490;BME280;44029;52.956;4.772;2022-09-09T13:59:12;100619.06;;;20.87;100.00
55490;BME280;44029;52.956;4.772;2022-09-09T14:01:38;100620.03;;;20.74;100.00
55490;BME280;44029;52.956;4.772;2022-09-09T14:04:04;100617.91;;;20.79;100.00
55490;BME280;44029;52.956;4.772;2022-09-09T14:06:33;100609.88;;;20.78;100.00
55490;BME280;44029;52.956;4.772;2022-09-09T14:09:02;100610.41;;;20.97;100.00
55490;BME280;44029;52.956;4.772;2022-09-09T14:11:27;100617.41;;;20.69;100.00
55490;BME280;44029;52.956;4.772;2022-09-09T14:13:53;100616.25;;;20.78;100.00
55490;BME280;44029;52.956;4.772;2022-09-09T14:16:18;100615.97;;;21.06;100.00
55490;BME280;44029;52.956;4.772;2022-09-09T14:18:45;100614.50;;;21.26;100.00
55490;BME280;44029;52.956;4.772;2022-09-09T14:21:11;100609.28;;;21.16;100.00
55490;BME280;44029;52.956;4.772;2022-09-09T14:23:37;100609.75;;;21.35;100.00
55490;BME280;44029;52.956;4.772;2022-09-09T14:26:04;100601.41;;;21.18;100.00
55490;BME280;44029;52.956;4.772;2022-09-09T14:28:29;100609.59;;;21.23;100.00
55490;BME280;44029;52.956;4.772;2022-09-09T14:30:54;100609.59;;;21.23;100.00
55490;BME280;44029;52.956;4.772;2022-09-09T14:33:20;100606.81;;;21.23;100.00
55490;BME280;44029;52.956;4.772;2022-09-09T14:35:46;100604.50;;;21.42;100.00
55490;BME280;44029;52.956;4.772;2022-09-09T14:38:11;100606.63;;;21.63;100.00
55490;BME280;44029;52.956;4.772;2022-09-09T14:40:38;100602.69;;;21.64;100.00
55490;BME280;44029;52.956;4.772;2022-09-09T14:43:04;100596.50;;;21.50;100.00
55490;BME280;44029;52.956;4.772;2022-09-09T14:45:31;100596.50;;;21.50;100.00
55490;BME280;44029;52.956;4.772;2022-09-09T14:47:57;100598.63;;;21.18;100.00